createdAt,value
2019-05-18T00:00:23.088Z,12.48
2019-05-18T00:01:23.023Z,12.47
2019-05-18T00:02:22.989Z,12.47
2019-05-18T00:03:22.963Z,12.63
2019-05-18T00:04:22.947Z,12.59
2019-05-18T00:05:22.909Z,12.62
2019-05-18T00:06:22.866Z,12.63
2019-05-18T00:07:22.833Z,12.68
2019-05-18T00:08:22.808Z,12.62
2019-05-18T00:09:22.769Z,12.59
2019-05-18T00:10:22.739Z,12.62
2019-05-18T00:11:22.708Z,12.55
2019-05-18T00:12:22.692Z,12.58
2019-05-18T00:13:22.657Z,12.62
2019-05-18T00:14:22.639Z,12.63
2019-05-18T00:15:22.585Z,12.66
2019-05-18T00:16:22.552Z,12.61
2019-05-18T00:17:25.181Z,12.62
2019-05-18T00:18:22.482Z,12.59
2019-05-18T00:19:22.552Z,12.53
2019-05-18T00:20:22.428Z,12.53
2019-05-18T00:21:22.405Z,12.58
2019-05-18T00:22:22.354Z,12.44
2019-05-18T00:23:22.329Z,12.50
2019-05-18T00:24:22.293Z,12.62
2019-05-18T00:25:22.270Z,12.59
2019-05-18T00:26:22.227Z,12.58
2019-05-18T00:27:22.208Z,12.59
2019-05-18T00:28:22.177Z,12.50
2019-05-18T00:29:22.160Z,12.41
2019-05-18T00:30:22.112Z,12.38
2019-05-18T00:31:22.081Z,12.40
2019-05-18T00:32:22.041Z,12.38
2019-05-18T00:33:22.021Z,12.29
2019-05-18T00:34:21.991Z,12.40
2019-05-18T00:35:21.947Z,12.30
2019-05-18T00:36:21.921Z,12.30
2019-05-18T00:37:22.021Z,12.30
2019-05-18T00:38:21.861Z,12.30
2019-05-18T00:39:21.854Z,12.26
2019-05-18T00:40:21.801Z,12.28
2019-05-18T00:41:21.945Z,12.38
2019-05-18T00:42:21.729Z,12.30
2019-05-18T00:43:21.706Z,12.32
2019-05-18T00:44:21.667Z,12.36
2019-05-18T00:45:21.637Z,12.23
2019-05-18T00:46:21.606Z,12.32
2019-05-18T00:47:21.576Z,12.29
2019-05-18T00:48:21.536Z,12.23
2019-05-18T00:49:21.510Z,12.22
2019-05-18T00:50:21.506Z,12.23
2019-05-18T00:51:23.285Z,12.18
2019-05-18T00:52:21.426Z,12.23
2019-05-18T00:53:21.378Z,12.17
2019-05-18T00:54:21.347Z,12.22
2019-05-18T00:55:21.327Z,12.22
2019-05-18T00:56:21.279Z,12.17
2019-05-18T00:57:21.250Z,12.25
2019-05-18T00:58:21.315Z,12.14
2019-05-18T00:59:21.185Z,12.21
2019-05-18T01:00:21.151Z,12.17
2019-05-18T01:01:21.154Z,12.23
2019-05-18T01:02:21.096Z,12.18
2019-05-18T01:03:21.063Z,12.18
2019-05-18T01:04:21.045Z,12.32
2019-05-18T01:05:20.995Z,12.25
2019-05-18T01:06:20.964Z,12.22
2019-05-18T01:07:20.936Z,12.15
2019-05-18T01:08:20.914Z,12.28
2019-05-18T01:09:20.874Z,12.17
2019-05-18T01:10:20.837Z,12.11
2019-05-18T01:11:20.816Z,12.10
2019-05-18T01:12:20.824Z,12.10
2019-05-18T01:13:20.772Z,12.10
2019-05-18T01:14:20.712Z,11.97
2019-05-18T01:15:20.677Z,11.97
2019-05-18T01:16:20.639Z,12.05
2019-05-18T01:17:20.612Z,11.82
2019-05-18T01:18:20.581Z,11.88
2019-05-18T01:19:20.550Z,11.82
2019-05-18T01:20:20.517Z,11.74
2019-05-18T01:21:20.487Z,11.79
2019-05-18T01:22:20.501Z,11.77
2019-05-18T01:23:20.423Z,11.76
2019-05-18T01:24:20.393Z,11.64
2019-05-18T01:25:20.357Z,11.71
2019-05-18T01:26:20.330Z,11.71
2019-05-18T01:27:20.286Z,11.79
2019-05-18T01:28:20.256Z,11.70
2019-05-18T01:29:20.232Z,11.62
2019-05-18T01:30:20.195Z,11.58
2019-05-18T01:31:20.174Z,11.58
2019-05-18T01:32:20.156Z,11.62
2019-05-18T01:33:20.101Z,11.61
2019-05-18T01:34:20.069Z,11.56
2019-05-18T01:35:20.045Z,11.55
2019-05-18T01:36:20.003Z,11.41
2019-05-18T01:37:20.009Z,11.52
2019-05-18T01:38:19.939Z,11.51
2019-05-18T01:39:19.902Z,11.40
2019-05-18T01:40:19.870Z,11.37
2019-05-18T01:41:19.839Z,11.37
2019-05-18T01:42:19.820Z,11.34
2019-05-18T01:43:19.776Z,11.33
2019-05-18T01:44:19.743Z,11.31
2019-05-18T01:45:19.713Z,11.33
2019-05-18T01:46:19.676Z,11.38
2019-05-18T01:47:19.643Z,11.28
2019-05-18T01:48:19.615Z,11.41
2019-05-18T01:49:19.581Z,11.37
2019-05-18T01:50:19.552Z,11.38
2019-05-18T01:51:19.516Z,11.30
2019-05-18T01:52:19.493Z,11.34
2019-05-18T01:53:19.456Z,11.31
2019-05-18T01:54:19.423Z,11.36
2019-05-18T01:55:19.389Z,11.38
2019-05-18T01:56:19.358Z,11.33
2019-05-18T01:57:19.331Z,11.33
2019-05-18T01:58:19.298Z,11.34
2019-05-18T01:59:19.266Z,11.30
2019-05-18T02:00:19.243Z,11.31
2019-05-18T02:01:19.202Z,11.31
2019-05-18T02:02:19.163Z,11.34
2019-05-18T02:03:19.128Z,11.30
2019-05-18T02:04:19.101Z,11.34
2019-05-18T02:05:19.070Z,11.28
2019-05-18T02:06:19.043Z,11.34
2019-05-18T02:07:19.002Z,11.40
2019-05-18T02:08:18.978Z,11.30
2019-05-18T02:09:18.940Z,11.37
2019-05-18T02:10:18.906Z,11.36
2019-05-18T02:11:18.881Z,11.33
2019-05-18T02:12:18.850Z,11.41
2019-05-18T02:13:18.806Z,11.41
2019-05-18T02:14:18.773Z,11.52
2019-05-18T02:15:18.740Z,11.51
2019-05-18T02:16:18.713Z,11.55
2019-05-18T02:17:18.680Z,11.58
2019-05-18T02:18:28.731Z,11.58
2019-05-18T02:19:18.619Z,11.61
2019-05-18T02:20:18.585Z,11.62
2019-05-18T02:21:18.549Z,11.56
2019-05-18T02:22:18.518Z,11.61
2019-05-18T02:23:18.489Z,11.69
2019-05-18T02:24:18.486Z,11.70
2019-05-18T02:25:18.419Z,11.76
2019-05-18T02:26:18.397Z,11.74
2019-05-18T02:27:18.360Z,11.70
2019-05-18T02:28:18.325Z,11.71
2019-05-18T02:29:18.295Z,11.73
2019-05-18T02:30:18.261Z,11.82
2019-05-18T02:31:18.229Z,11.76
2019-05-18T02:32:18.201Z,11.82
2019-05-18T02:33:18.171Z,11.82
2019-05-18T02:34:18.133Z,11.69
2019-05-18T02:35:18.103Z,11.77
2019-05-18T02:36:18.069Z,11.80
2019-05-18T02:37:18.070Z,11.76
2019-05-18T02:38:18.005Z,11.82
2019-05-18T02:39:17.993Z,11.69
2019-05-18T02:40:17.937Z,11.82
2019-05-18T02:41:17.912Z,11.66
2019-05-18T02:42:17.915Z,11.74
2019-05-18T02:43:17.840Z,11.73
2019-05-18T02:44:17.815Z,11.79
2019-05-18T02:45:17.782Z,11.76
2019-05-18T02:46:17.754Z,11.76
2019-05-18T02:47:17.715Z,11.85
2019-05-18T02:48:17.683Z,11.76
2019-05-18T02:49:17.647Z,11.74
2019-05-18T02:50:17.624Z,11.74
2019-05-18T02:51:17.584Z,11.84
2019-05-18T02:52:17.572Z,11.74
2019-05-18T02:53:17.524Z,11.74
2019-05-18T02:54:17.486Z,11.88
2019-05-18T02:55:17.463Z,11.91
2019-05-18T02:56:17.423Z,11.91
2019-05-18T02:57:17.396Z,11.88
2019-05-18T02:58:17.367Z,11.88
2019-05-18T02:59:17.340Z,11.99
2019-05-18T03:00:17.378Z,11.87
2019-05-18T03:01:17.281Z,11.85
2019-05-18T03:02:17.236Z,11.82
2019-05-18T03:03:17.209Z,11.97
2019-05-18T03:04:17.180Z,11.93
2019-05-18T03:05:17.145Z,11.96
2019-05-18T03:06:17.108Z,11.99
2019-05-18T03:07:17.076Z,12.00
2019-05-18T03:08:17.049Z,12.04
2019-05-18T03:09:17.005Z,11.88
2019-05-18T03:10:16.983Z,11.85
2019-05-18T03:11:16.945Z,12.05
2019-05-18T03:12:16.915Z,12.10
2019-05-18T03:13:16.893Z,12.05
2019-05-18T03:14:16.848Z,12.00
2019-05-18T03:15:16.817Z,12.04
2019-05-18T03:16:16.787Z,11.97
2019-05-18T03:17:16.752Z,12.17
2019-05-18T03:18:16.730Z,12.03
2019-05-18T03:19:16.694Z,12.11
2019-05-18T03:20:16.651Z,12.13
2019-05-18T03:21:16.624Z,12.11
2019-05-18T03:22:16.595Z,12.13
2019-05-18T03:23:16.568Z,12.14
2019-05-18T03:24:16.541Z,12.08
2019-05-18T03:25:16.502Z,12.15
2019-05-18T03:26:16.470Z,12.11
2019-05-18T03:27:16.430Z,12.08
2019-05-18T03:28:16.405Z,12.11
2019-05-18T03:29:16.386Z,12.14
2019-05-18T03:30:16.345Z,12.11
2019-05-18T03:31:16.310Z,12.13
2019-05-18T03:32:16.285Z,12.11
2019-05-18T03:33:16.257Z,12.14
2019-05-18T03:34:16.210Z,12.13
2019-05-18T03:35:16.183Z,12.25
2019-05-18T03:36:16.145Z,12.18
2019-05-18T03:37:16.117Z,12.23
2019-05-18T03:38:16.080Z,12.18
2019-05-18T03:39:16.049Z,12.18
2019-05-18T03:40:16.015Z,12.21
2019-05-18T03:41:15.993Z,12.23
2019-05-18T03:42:15.952Z,12.35
2019-05-18T03:43:15.934Z,12.26
2019-05-18T03:44:15.891Z,12.26
2019-05-18T03:45:15.869Z,12.23
2019-05-18T03:46:15.830Z,12.25
2019-05-18T03:47:15.793Z,12.33
2019-05-18T03:48:15.768Z,12.29
2019-05-18T03:49:26.265Z,12.25
2019-05-18T03:50:15.696Z,12.30
2019-05-18T03:51:15.670Z,12.26
2019-05-18T03:52:15.635Z,12.30
2019-05-18T03:53:18.104Z,12.33
2019-05-18T03:54:15.570Z,12.36
2019-05-18T03:55:15.539Z,12.38
2019-05-18T03:56:15.504Z,12.35
2019-05-18T03:57:15.477Z,12.38
2019-05-18T03:58:15.441Z,12.43
2019-05-18T03:59:15.407Z,12.40
2019-05-18T04:00:15.378Z,12.36
2019-05-18T04:01:15.367Z,12.46
2019-05-18T04:02:15.313Z,12.46
2019-05-18T04:03:15.292Z,12.43
2019-05-18T04:04:18.420Z,12.44
2019-05-18T04:05:15.231Z,12.46
2019-05-18T04:06:15.189Z,12.46
2019-05-18T04:07:15.158Z,12.43
2019-05-18T04:08:15.126Z,12.44
2019-05-18T04:09:15.102Z,12.44
2019-05-18T04:10:15.070Z,12.43
2019-05-18T04:11:15.029Z,12.46
2019-05-18T04:12:15.003Z,12.44
2019-05-18T04:13:14.968Z,12.46
2019-05-18T04:14:14.932Z,12.47
2019-05-18T04:15:14.926Z,12.43
2019-05-18T04:16:14.870Z,12.41
2019-05-18T04:17:14.839Z,12.41
2019-05-18T04:18:14.811Z,12.38
2019-05-18T04:19:14.779Z,12.40
2019-05-18T04:20:14.744Z,12.38
2019-05-18T04:21:14.711Z,12.30
2019-05-18T04:22:14.687Z,12.38
2019-05-18T04:23:14.652Z,12.32
2019-05-18T04:24:14.621Z,12.38
2019-05-18T04:25:14.585Z,12.30
2019-05-18T04:26:14.555Z,12.41
2019-05-18T04:27:14.528Z,12.40
2019-05-18T04:28:14.498Z,12.43
2019-05-18T04:29:14.459Z,12.44
2019-05-18T04:30:14.448Z,12.44
2019-05-18T04:31:14.389Z,12.43
2019-05-18T04:32:14.373Z,12.50
2019-05-18T04:33:14.332Z,12.44
2019-05-18T04:34:14.306Z,12.50
2019-05-18T04:35:14.267Z,12.65
2019-05-18T04:36:14.241Z,12.50
2019-05-18T04:37:14.200Z,12.62
2019-05-18T04:38:14.170Z,12.63
2019-05-18T04:39:14.135Z,12.63
2019-05-18T04:40:14.110Z,12.68
2019-05-18T04:41:14.081Z,12.62
2019-05-18T04:42:14.064Z,12.72
2019-05-18T04:43:14.017Z,12.72
2019-05-18T04:44:13.977Z,12.80
2019-05-18T04:45:13.947Z,12.73
2019-05-18T04:46:13.927Z,12.79
2019-05-18T04:47:13.887Z,12.81
2019-05-18T04:48:13.856Z,12.84
2019-05-18T04:49:13.821Z,12.76
2019-05-18T04:50:13.792Z,12.86
2019-05-18T04:51:13.775Z,12.88
2019-05-18T04:52:13.738Z,12.84
2019-05-18T04:53:13.699Z,12.91
2019-05-18T04:54:13.674Z,12.91
2019-05-18T04:55:13.637Z,12.98
2019-05-18T04:56:13.602Z,13.06
2019-05-18T04:57:13.611Z,13.01
2019-05-18T04:58:13.544Z,13.13
2019-05-18T04:59:13.518Z,13.08
2019-05-18T05:00:13.513Z,13.06
2019-05-18T05:01:13.449Z,13.17
2019-05-18T05:02:13.417Z,13.19
2019-05-18T05:03:13.380Z,13.20
2019-05-18T05:04:13.349Z,13.24
2019-05-18T05:05:13.328Z,13.21
2019-05-18T05:06:13.305Z,13.26
2019-05-18T05:07:13.268Z,13.26
2019-05-18T05:08:13.254Z,13.16
2019-05-18T05:09:13.198Z,13.29
2019-05-18T05:10:13.161Z,13.20
2019-05-18T05:11:13.137Z,13.24
2019-05-18T05:12:13.109Z,13.42
2019-05-18T05:13:13.072Z,13.38
2019-05-18T05:14:13.053Z,13.38
2019-05-18T05:15:13.005Z,13.46
2019-05-18T05:16:12.978Z,13.49
2019-05-18T05:17:12.948Z,13.53
2019-05-18T05:18:12.916Z,13.54
2019-05-18T05:19:12.886Z,13.47
2019-05-18T05:20:19.822Z,13.54
2019-05-18T05:21:12.861Z,13.46
2019-05-18T05:22:12.796Z,13.45
2019-05-18T05:23:12.764Z,13.47
2019-05-18T05:24:12.751Z,13.39
2019-05-18T05:25:12.701Z,13.49
2019-05-18T05:26:12.669Z,13.42
2019-05-18T05:27:12.643Z,13.38
2019-05-18T05:28:12.599Z,13.40
2019-05-18T05:29:12.573Z,13.40
2019-05-18T05:30:12.615Z,13.43
2019-05-18T05:31:12.528Z,13.46
2019-05-18T05:32:12.502Z,13.51
2019-05-18T05:33:12.499Z,13.49
2019-05-18T05:34:12.427Z,13.49
2019-05-18T05:35:12.444Z,13.49
2019-05-18T05:36:12.380Z,13.60
2019-05-18T05:37:12.339Z,13.54
2019-05-18T05:38:12.288Z,13.57
2019-05-18T05:39:12.263Z,13.60
2019-05-18T05:40:12.231Z,13.58
2019-05-18T05:41:16.480Z,13.54
2019-05-18T05:42:12.172Z,13.51
2019-05-18T05:43:12.226Z,13.54
2019-05-18T05:44:12.105Z,13.53
2019-05-18T05:45:12.071Z,13.46
2019-05-18T05:46:12.040Z,13.64
2019-05-18T05:47:12.013Z,13.65
2019-05-18T05:48:11.974Z,13.53
2019-05-18T05:49:11.952Z,13.58
2019-05-18T05:50:11.916Z,13.71
2019-05-18T05:51:11.905Z,13.75
2019-05-18T05:52:11.857Z,13.67
2019-05-18T05:53:11.829Z,13.80
2019-05-18T05:54:11.794Z,13.76
2019-05-18T05:55:11.767Z,13.85
2019-05-18T05:56:11.733Z,13.90
2019-05-18T05:57:11.709Z,13.88
2019-05-18T05:58:11.665Z,13.80
2019-05-18T05:59:11.638Z,13.91
2019-05-18T06:00:11.615Z,13.86
2019-05-18T06:01:11.580Z,13.90
2019-05-18T06:02:11.547Z,13.96
2019-05-18T06:03:11.513Z,14.00
2019-05-18T06:04:11.487Z,14.05
2019-05-18T06:05:11.456Z,14.12
2019-05-18T06:06:11.428Z,14.16
2019-05-18T06:07:11.390Z,14.09
2019-05-18T06:08:11.360Z,14.15
2019-05-18T06:09:11.333Z,14.27
2019-05-18T06:10:11.303Z,14.23
2019-05-18T06:11:11.267Z,14.30
2019-05-18T06:12:11.247Z,14.28
2019-05-18T06:13:11.217Z,14.27
2019-05-18T06:14:11.175Z,14.36
2019-05-18T06:15:11.185Z,14.26
2019-05-18T06:16:11.158Z,14.34
2019-05-18T06:17:11.081Z,14.31
2019-05-18T06:18:11.142Z,14.37
2019-05-18T06:19:11.069Z,14.48
2019-05-18T06:20:11.025Z,14.36
2019-05-18T06:21:11.008Z,14.45
2019-05-18T06:22:11.022Z,14.46
2019-05-18T06:23:10.929Z,14.56
2019-05-18T06:24:10.867Z,14.59
2019-05-18T06:25:10.857Z,14.56
2019-05-18T06:26:10.813Z,14.69
2019-05-18T06:27:10.782Z,14.78
2019-05-18T06:28:10.742Z,14.83
2019-05-18T06:29:10.718Z,14.90
2019-05-18T06:30:10.702Z,14.90
2019-05-18T06:31:10.656Z,14.95
2019-05-18T06:32:10.626Z,15.03
2019-05-18T06:33:10.598Z,14.96
2019-05-18T06:34:10.561Z,15.07
2019-05-18T06:35:10.533Z,14.99
2019-05-18T06:36:10.507Z,15.17
2019-05-18T06:37:10.474Z,15.08
2019-05-18T06:38:10.484Z,15.07
2019-05-18T06:39:10.410Z,15.19
2019-05-18T06:40:10.387Z,15.29
2019-05-18T06:41:10.356Z,15.29
2019-05-18T06:42:10.953Z,15.26
2019-05-18T06:43:10.301Z,15.33
2019-05-18T06:44:10.284Z,15.23
2019-05-18T06:45:10.247Z,15.32
2019-05-18T06:46:10.219Z,15.26
2019-05-18T06:47:10.166Z,15.26
2019-05-18T06:48:10.146Z,15.27
2019-05-18T06:49:10.581Z,15.29
2019-05-18T06:50:12.325Z,15.33
2019-05-18T06:51:10.050Z,15.38
2019-05-18T06:52:10.024Z,15.41
2019-05-18T06:53:10.003Z,15.58
2019-05-18T06:54:09.975Z,15.63
2019-05-18T06:55:10.002Z,15.62
2019-05-18T06:56:09.909Z,15.70
2019-05-18T06:57:09.871Z,15.68
2019-05-18T06:58:09.839Z,15.73
2019-05-18T06:59:09.809Z,15.77
2019-05-18T07:00:09.779Z,15.70
2019-05-18T07:01:09.753Z,15.77
2019-05-18T07:02:09.726Z,15.78
2019-05-18T07:03:09.710Z,15.90
2019-05-18T07:04:09.659Z,15.93
2019-05-18T07:05:09.649Z,15.90
2019-05-18T07:06:09.645Z,16.05
2019-05-18T07:07:10.620Z,16.05
2019-05-18T07:08:09.552Z,16.08
2019-05-18T07:09:14.063Z,16.02
2019-05-18T07:10:09.483Z,16.03
2019-05-18T07:11:09.864Z,16.02
2019-05-18T07:12:09.441Z,16.05
2019-05-18T07:13:09.403Z,15.99
2019-05-18T07:14:09.381Z,15.96
2019-05-18T07:15:09.336Z,16.00
2019-05-18T07:16:09.314Z,16.09
2019-05-18T07:17:09.280Z,16.18
2019-05-18T07:18:09.254Z,16.25
2019-05-18T07:19:09.221Z,16.21
2019-05-18T07:20:09.252Z,16.36
2019-05-18T07:21:21.313Z,16.42
2019-05-18T07:22:09.189Z,16.46
2019-05-18T07:23:09.119Z,16.52
2019-05-18T07:24:09.121Z,16.54
2019-05-18T07:25:09.111Z,16.64
2019-05-18T07:26:09.028Z,16.77
2019-05-18T07:27:09.005Z,16.87
2019-05-18T07:28:08.965Z,16.94
2019-05-18T07:29:09.009Z,17.10
2019-05-18T07:30:08.983Z,17.14
2019-05-18T07:31:08.946Z,17.22
2019-05-18T07:32:08.920Z,17.16
2019-05-18T07:33:08.869Z,17.31
2019-05-18T07:34:08.835Z,17.37
2019-05-18T07:35:08.755Z,17.37
2019-05-18T07:36:08.742Z,17.54
2019-05-18T07:37:08.755Z,17.65
2019-05-18T07:38:08.707Z,17.63
2019-05-18T07:39:08.649Z,17.72
2019-05-18T07:40:09.014Z,17.76
2019-05-18T07:41:08.579Z,17.83
2019-05-18T07:42:08.610Z,17.96
2019-05-18T07:43:08.521Z,18.12
2019-05-18T07:44:08.499Z,18.26
2019-05-18T07:45:08.470Z,18.11
2019-05-18T07:46:08.905Z,18.26
2019-05-18T07:47:08.409Z,18.26
2019-05-18T07:48:08.386Z,18.34
2019-05-18T07:49:08.382Z,18.27
2019-05-18T07:50:08.331Z,18.39
2019-05-18T07:51:08.307Z,18.26
2019-05-18T07:52:08.296Z,18.28
2019-05-18T07:53:08.245Z,18.48
2019-05-18T07:54:08.501Z,18.41
2019-05-18T07:55:08.189Z,18.48
2019-05-18T07:56:08.169Z,18.54
2019-05-18T07:57:08.134Z,18.51
2019-05-18T07:58:08.101Z,18.46
2019-05-18T07:59:08.074Z,18.54
2019-05-18T08:00:08.076Z,18.58
2019-05-18T08:01:08.030Z,18.79
2019-05-18T08:02:07.997Z,18.68
2019-05-18T08:03:07.975Z,18.78
2019-05-18T08:04:07.939Z,18.75
2019-05-18T08:05:07.913Z,18.85
2019-05-18T08:06:07.900Z,18.85
2019-05-18T08:07:07.858Z,18.79
2019-05-18T08:08:07.836Z,18.43
2019-05-18T08:09:07.813Z,18.33
2019-05-18T08:10:07.789Z,18.36
2019-05-18T08:11:07.750Z,18.34
2019-05-18T08:12:07.769Z,18.52
2019-05-18T08:13:07.768Z,18.60
2019-05-18T08:14:07.666Z,18.68
2019-05-18T08:15:07.644Z,18.56
2019-05-18T08:16:07.612Z,18.54
2019-05-18T08:17:07.578Z,18.51
2019-05-18T08:18:07.590Z,18.56
2019-05-18T08:19:07.535Z,18.51
2019-05-18T08:20:07.498Z,18.63
2019-05-18T08:21:07.474Z,18.71
2019-05-18T08:22:07.442Z,18.76
2019-05-18T08:23:07.432Z,18.83
2019-05-18T08:24:07.389Z,18.93
2019-05-18T08:25:07.365Z,18.88
2019-05-18T08:26:07.333Z,18.88
2019-05-18T08:27:07.315Z,18.91
2019-05-18T08:28:07.282Z,19.04
2019-05-18T08:29:07.256Z,19.08
2019-05-18T08:30:07.232Z,19.23
2019-05-18T08:31:07.199Z,19.23
2019-05-18T08:32:07.169Z,19.34
2019-05-18T08:33:07.153Z,19.30
2019-05-18T08:34:07.118Z,19.19
2019-05-18T08:35:07.092Z,19.17
2019-05-18T08:36:07.066Z,19.23
2019-05-18T08:37:07.035Z,19.09
2019-05-18T08:38:07.013Z,19.09
2019-05-18T08:39:07.078Z,18.93
2019-05-18T08:40:06.956Z,19.01
2019-05-18T08:41:06.937Z,19.09
2019-05-18T08:42:06.984Z,19.13
2019-05-18T08:43:06.875Z,19.22
2019-05-18T08:44:06.857Z,19.19
2019-05-18T08:45:06.821Z,19.34
2019-05-18T08:46:06.793Z,19.38
2019-05-18T08:47:06.763Z,19.49
2019-05-18T08:48:06.744Z,19.41
2019-05-18T08:49:06.713Z,19.42
2019-05-18T08:50:06.687Z,19.54
2019-05-18T08:51:06.661Z,19.47
2019-05-18T08:52:08.599Z,19.54
2019-05-18T08:53:06.605Z,19.50
2019-05-18T08:54:06.576Z,19.59
2019-05-18T08:55:06.551Z,19.70
2019-05-18T08:56:06.580Z,19.63
2019-05-18T08:57:06.495Z,19.82
2019-05-18T08:58:06.466Z,19.79
2019-05-18T08:59:06.457Z,19.86
2019-05-18T09:00:06.415Z,19.75
2019-05-18T09:01:06.386Z,19.62
2019-05-18T09:02:06.366Z,19.59
2019-05-18T09:03:06.328Z,19.62
2019-05-18T09:04:06.304Z,19.57
2019-05-18T09:05:06.301Z,19.60
2019-05-18T09:06:06.247Z,19.60
2019-05-18T09:07:06.230Z,19.60
2019-05-18T09:08:06.188Z,19.62
2019-05-18T09:09:06.182Z,19.62
2019-05-18T09:10:06.135Z,19.50
2019-05-18T09:11:06.108Z,19.38
2019-05-18T09:12:06.087Z,19.39
2019-05-18T09:13:06.055Z,19.34
2019-05-18T09:14:06.032Z,19.53
2019-05-18T09:15:05.998Z,19.60
2019-05-18T09:16:05.974Z,19.60
2019-05-18T09:17:05.948Z,19.56
2019-05-18T09:18:05.933Z,19.72
2019-05-18T09:19:05.892Z,19.87
2019-05-18T09:20:05.862Z,20.00
2019-05-18T09:21:05.844Z,20.00
2019-05-18T09:22:05.810Z,20.07
2019-05-18T09:23:05.789Z,20.22
2019-05-18T09:24:05.759Z,20.19
2019-05-18T09:25:05.749Z,20.19
2019-05-18T09:26:05.698Z,20.25
2019-05-18T09:27:05.686Z,20.18
2019-05-18T09:28:05.654Z,20.15
2019-05-18T09:29:05.619Z,20.25
2019-05-18T09:30:05.677Z,20.23
2019-05-18T09:31:05.572Z,20.26
2019-05-18T09:32:05.547Z,20.29
2019-05-18T09:33:05.545Z,20.37
2019-05-18T09:34:05.490Z,20.44
2019-05-18T09:35:05.459Z,20.58
2019-05-18T09:36:05.434Z,20.60
2019-05-18T09:37:05.414Z,20.65
2019-05-18T09:38:05.375Z,20.71
2019-05-18T09:39:05.354Z,20.44
2019-05-18T09:40:05.330Z,20.41
2019-05-18T09:41:05.299Z,20.50
2019-05-18T09:42:05.279Z,20.46
2019-05-18T09:43:05.320Z,20.48
2019-05-18T09:44:05.223Z,20.58
2019-05-18T09:45:05.198Z,20.70
2019-05-18T09:46:05.167Z,20.82
2019-05-18T09:47:05.140Z,20.71
2019-05-18T09:48:05.231Z,20.70
2019-05-18T09:49:05.086Z,20.46
2019-05-18T09:50:05.066Z,20.53
2019-05-18T09:51:05.040Z,20.49
2019-05-18T09:52:05.009Z,20.46
2019-05-18T09:53:05.512Z,20.46
2019-05-18T09:54:04.974Z,20.48
2019-05-18T09:55:04.935Z,20.50
2019-05-18T09:56:04.911Z,20.53
2019-05-18T09:57:04.889Z,20.60
2019-05-18T09:58:04.851Z,20.60
2019-05-18T09:59:04.830Z,20.70
2019-05-18T10:00:04.799Z,20.60
2019-05-18T10:01:04.770Z,20.64
2019-05-18T10:02:04.755Z,20.73
2019-05-18T10:03:04.717Z,20.70
2019-05-18T10:04:04.691Z,20.67
2019-05-18T10:05:04.669Z,20.71
2019-05-18T10:06:04.650Z,20.73
2019-05-18T10:07:04.625Z,20.86
2019-05-18T10:08:04.583Z,20.92
2019-05-18T10:09:04.560Z,20.80
2019-05-18T10:10:04.538Z,20.95
2019-05-18T10:11:04.511Z,20.92
2019-05-18T10:12:04.485Z,20.95
2019-05-18T10:13:04.458Z,20.88
2019-05-18T10:14:04.432Z,20.73
2019-05-18T10:15:04.409Z,20.80
2019-05-18T10:16:04.374Z,21.10
2019-05-18T10:17:04.354Z,21.25
2019-05-18T10:18:04.325Z,21.20
2019-05-18T10:19:04.298Z,21.03
2019-05-18T10:20:04.274Z,20.93
2019-05-18T10:21:04.273Z,20.90
2019-05-18T10:22:04.270Z,20.95
2019-05-18T10:23:12.419Z,21.11
2019-05-18T10:24:04.227Z,21.19
2019-05-18T10:25:04.136Z,21.20
2019-05-18T10:26:04.111Z,21.20
2019-05-18T10:27:04.088Z,21.28
2019-05-18T10:28:04.059Z,21.50
2019-05-18T10:29:04.033Z,21.55
2019-05-18T10:30:04.011Z,21.63
2019-05-18T10:31:03.989Z,21.80
2019-05-18T10:32:03.958Z,21.91
2019-05-18T10:33:04.004Z,21.78
2019-05-18T10:34:03.907Z,21.74
2019-05-18T10:35:03.901Z,21.71
2019-05-18T10:36:03.948Z,21.66
2019-05-18T10:37:03.828Z,21.85
2019-05-18T10:38:03.803Z,21.85
2019-05-18T10:39:03.775Z,22.11
2019-05-18T10:40:03.751Z,22.44
2019-05-18T10:41:03.726Z,22.51
2019-05-18T10:42:03.753Z,22.58
2019-05-18T10:43:03.676Z,22.61
2019-05-18T10:44:03.647Z,22.37
2019-05-18T10:45:03.622Z,22.38
2019-05-18T10:46:03.598Z,22.18
2019-05-18T10:47:03.564Z,22.01
2019-05-18T10:48:03.566Z,21.98
2019-05-18T10:49:03.530Z,22.15
2019-05-18T10:50:03.495Z,22.27
2019-05-18T10:51:05.550Z,22.33
2019-05-18T10:52:03.437Z,22.30
2019-05-18T10:53:03.422Z,22.27
2019-05-18T10:54:03.386Z,22.56
2019-05-18T10:55:03.360Z,22.81
2019-05-18T10:56:03.368Z,23.11
2019-05-18T10:57:03.315Z,23.36
2019-05-18T10:58:03.293Z,23.44
2019-05-18T10:59:03.264Z,23.54
2019-05-18T11:00:03.285Z,23.54
2019-05-18T11:01:03.235Z,23.70
2019-05-18T11:02:03.203Z,23.82
2019-05-18T11:03:03.264Z,23.78
2019-05-18T11:04:03.146Z,23.89
2019-05-18T11:05:03.120Z,24.01
2019-05-18T11:06:03.089Z,24.23
2019-05-18T11:07:03.075Z,24.51
2019-05-18T11:08:03.080Z,24.59
2019-05-18T11:09:03.021Z,24.76
2019-05-18T11:10:02.996Z,24.84
2019-05-18T11:11:02.972Z,24.91
2019-05-18T11:12:02.944Z,24.99
2019-05-18T11:13:02.924Z,24.82
2019-05-18T11:14:02.913Z,24.94
2019-05-18T11:15:02.974Z,24.96
2019-05-18T11:16:02.951Z,25.18
2019-05-18T11:17:02.908Z,25.28
2019-05-18T11:18:02.869Z,25.28
2019-05-18T11:19:02.833Z,24.75
2019-05-18T11:20:02.836Z,24.60
2019-05-18T11:21:02.791Z,24.43
2019-05-18T11:22:02.793Z,24.45
2019-05-18T11:23:02.767Z,24.44
2019-05-18T11:24:02.753Z,24.48
2019-05-18T11:25:02.807Z,24.33
2019-05-18T11:26:02.696Z,24.23
2019-05-18T11:27:02.783Z,24.29
2019-05-18T11:28:02.683Z,24.22
2019-05-18T11:29:02.649Z,24.29
2019-05-18T11:30:02.834Z,24.22
2019-05-18T11:31:02.562Z,24.15
2019-05-18T11:32:02.546Z,24.36
2019-05-18T11:33:02.515Z,24.26
2019-05-18T11:34:02.507Z,24.45
2019-05-18T11:35:02.461Z,24.60
2019-05-18T11:36:02.456Z,24.62
2019-05-18T11:37:03.256Z,25.18
2019-05-18T11:38:02.409Z,25.66
2019-05-18T11:39:02.391Z,25.96
2019-05-18T11:40:02.342Z,26.21
2019-05-18T11:41:02.351Z,26.49
2019-05-18T11:42:02.318Z,26.46
2019-05-18T11:43:02.290Z,26.58
2019-05-18T11:44:02.272Z,26.94
2019-05-18T11:45:02.275Z,26.89
2019-05-18T11:46:02.360Z,27.20
2019-05-18T11:47:02.201Z,27.05
2019-05-18T11:48:02.198Z,26.94
2019-05-18T11:49:02.151Z,26.76
2019-05-18T11:50:02.177Z,26.48
2019-05-18T11:51:02.125Z,25.71
2019-05-18T11:52:02.088Z,25.28
2019-05-18T11:53:02.128Z,25.19
2019-05-18T11:54:02.091Z,24.79
2019-05-18T11:55:02.015Z,24.70
2019-05-18T11:56:01.984Z,24.65
2019-05-18T11:57:02.029Z,24.48
2019-05-18T11:58:01.962Z,24.60
2019-05-18T11:59:01.938Z,24.58
2019-05-18T12:00:02.118Z,24.26
2019-05-18T12:01:01.915Z,24.21
2019-05-18T12:02:01.977Z,24.07
2019-05-18T12:03:01.861Z,23.98
2019-05-18T12:04:01.853Z,24.58
2019-05-18T12:05:01.821Z,24.76
2019-05-18T12:06:01.794Z,24.86
2019-05-18T12:07:01.774Z,25.09
2019-05-18T12:08:01.744Z,25.19
2019-05-18T12:09:01.735Z,25.09
2019-05-18T12:10:01.700Z,25.19
2019-05-18T12:11:01.685Z,25.61
2019-05-18T12:12:01.648Z,26.20
2019-05-18T12:13:01.629Z,26.26
2019-05-18T12:14:01.628Z,25.96
2019-05-18T12:15:01.602Z,25.66
2019-05-18T12:16:01.511Z,25.64
2019-05-18T12:17:01.481Z,25.66
2019-05-18T12:18:01.454Z,25.58
2019-05-18T12:19:01.435Z,25.30
2019-05-18T12:20:01.426Z,25.30
2019-05-18T12:21:01.387Z,25.23
2019-05-18T12:22:01.389Z,25.26
2019-05-18T12:23:01.362Z,25.30
2019-05-18T12:24:14.233Z,25.48
2019-05-18T12:25:01.307Z,25.30
2019-05-18T12:26:01.276Z,25.16
2019-05-18T12:27:01.890Z,25.04
2019-05-18T12:28:01.256Z,24.84
2019-05-18T12:29:01.217Z,24.94
2019-05-18T12:30:01.196Z,24.94
2019-05-18T12:31:02.161Z,25.34
2019-05-18T12:32:01.150Z,25.77
2019-05-18T12:33:01.127Z,26.43
2019-05-18T12:34:01.104Z,26.93
2019-05-18T12:35:01.085Z,27.25
2019-05-18T12:36:01.064Z,27.41
2019-05-18T12:37:01.037Z,27.61
2019-05-18T12:38:01.045Z,27.70
2019-05-18T12:39:01.005Z,27.61
2019-05-18T12:40:00.973Z,26.56
2019-05-18T12:41:00.948Z,26.36
2019-05-18T12:42:00.930Z,26.23
2019-05-18T12:43:00.903Z,25.88
2019-05-18T12:44:00.894Z,25.89
2019-05-18T12:45:00.874Z,26.07
2019-05-18T12:46:00.842Z,25.77
2019-05-18T12:47:00.934Z,25.71
2019-05-18T12:48:00.814Z,25.64
2019-05-18T12:49:00.787Z,25.53
2019-05-18T12:50:00.760Z,25.78
2019-05-18T12:51:00.741Z,25.92
2019-05-18T12:52:00.722Z,26.04